createdAt,value
2023-03-12T00:00:22.665Z,68.00
2023-03-12T00:03:09.034Z,70.10
2023-03-12T00:05:54.988Z,69.10
2023-03-12T00:08:41.017Z,68.60
2023-03-12T00:11:27.652Z,69.00
2023-03-12T00:14:14.317Z,69.40
2023-03-12T00:17:00.330Z,70.00
2023-03-12T00:19:46.348Z,68.40
2023-03-12T00:22:32.822Z,68.80
2023-03-12T00:25:19.065Z,69.60
2023-03-12T00:28:05.536Z,66.40
2023-03-12T00:30:55.318Z,65.70
2023-03-12T00:33:43.516Z,66.60
2023-03-12T00:36:30.827Z,67.80
2023-03-12T00:39:17.212Z,67.10
2023-03-12T00:42:03.264Z,68.10
2023-03-12T00:44:49.379Z,68.00
2023-03-12T00:47:35.292Z,69.10
2023-03-12T00:50:21.568Z,68.10
2023-03-12T00:53:07.528Z,69.60
2023-03-12T00:55:54.041Z,69.40
2023-03-12T00:58:42.745Z,69.50
2023-03-12T01:01:29.164Z,69.40
2023-03-12T01:04:15.565Z,70.30
2023-03-12T01:07:02.025Z,69.20
2023-03-12T01:09:47.940Z,69.10
2023-03-12T01:12:34.843Z,69.80
2023-03-12T01:15:20.870Z,70.20
2023-03-12T01:18:06.564Z,70.10
2023-03-12T01:20:53.127Z,70.00
2023-03-12T01:23:39.172Z,71.10
2023-03-12T01:26:25.240Z,70.70
2023-03-12T01:29:11.225Z,71.30
2023-03-12T01:31:57.075Z,73.30
2023-03-12T01:34:44.196Z,74.00
2023-03-12T01:37:31.796Z,73.70
2023-03-12T01:40:21.682Z,73.10
2023-03-12T01:43:30.876Z,73.20
2023-03-12T01:46:30.286Z,72.40
2023-03-12T01:49:31.606Z,72.70
2023-03-12T01:52:26.896Z,73.30
2023-03-12T01:55:16.436Z,73.90
2023-03-12T01:58:06.726Z,72.70
2023-03-12T02:00:53.398Z,73.30
2023-03-12T02:03:39.712Z,73.10
2023-03-12T02:06:43.841Z,73.20
2023-03-12T02:09:32.192Z,74.20
2023-03-12T02:12:18.732Z,74.30
2023-03-12T02:15:05.643Z,73.90
2023-03-12T02:17:54.173Z,74.60
2023-03-12T02:20:59.054Z,74.30
2023-03-12T02:23:51.252Z,73.90
2023-03-12T02:26:39.147Z,73.00
2023-03-12T02:29:30.363Z,74.10
2023-03-12T02:32:36.190Z,74.40
2023-03-12T02:35:22.835Z,73.90
2023-03-12T02:38:37.126Z,73.20
2023-03-12T02:41:49.130Z,73.90
2023-03-12T02:44:37.342Z,73.90
2023-03-12T02:47:23.679Z,72.40
2023-03-12T02:50:10.303Z,71.90
2023-03-12T02:52:56.219Z,73.10
2023-03-12T02:55:42.630Z,74.30
2023-03-12T02:58:28.793Z,74.40
2023-03-12T03:01:15.107Z,74.10
2023-03-12T03:04:02.736Z,74.70
2023-03-12T03:06:49.128Z,75.10
2023-03-12T03:09:35.484Z,75.90
2023-03-12T03:12:22.952Z,75.90
2023-03-12T03:15:10.779Z,75.70
2023-03-12T03:17:58.397Z,76.10
2023-03-12T03:20:45.019Z,75.20
2023-03-12T03:23:31.540Z,75.10
2023-03-12T03:26:20.868Z,75.40
2023-03-12T03:29:07.598Z,76.00
2023-03-12T03:31:53.955Z,75.00
2023-03-12T03:34:40.910Z,74.50
2023-03-12T03:37:26.893Z,74.40
2023-03-12T03:40:13.537Z,74.00
2023-03-12T03:42:59.701Z,72.90
2023-03-12T03:45:46.426Z,72.40
2023-03-12T03:48:33.717Z,72.40
2023-03-12T03:51:20.437Z,72.80
2023-03-12T03:54:10.879Z,72.90
2023-03-12T03:56:58.125Z,73.00
2023-03-12T03:59:44.552Z,75.00
2023-03-12T04:02:31.044Z,75.50
2023-03-12T04:05:19.640Z,75.40
2023-03-12T04:08:07.310Z,74.90
2023-03-12T04:10:53.987Z,75.60
2023-03-12T04:13:41.450Z,75.50
2023-03-12T04:16:28.003Z,76.00
2023-03-12T04:19:14.755Z,75.40
2023-03-12T04:22:01.886Z,74.80
2023-03-12T04:24:48.419Z,74.90
2023-03-12T04:27:35.176Z,75.30
2023-03-12T04:30:21.679Z,76.30
2023-03-12T04:33:08.398Z,75.90
2023-03-12T04:35:55.465Z,76.40
2023-03-12T04:38:41.934Z,76.60
2023-03-12T04:41:28.002Z,76.90
2023-03-12T04:44:20.898Z,77.40
2023-03-12T04:47:07.016Z,78.20
2023-03-12T04:49:53.032Z,78.30
2023-03-12T04:52:40.576Z,78.30
2023-03-12T04:55:27.475Z,78.30
2023-03-12T04:58:16.104Z,78.50
2023-03-12T05:01:02.496Z,78.60
2023-03-12T05:03:48.585Z,78.70
2023-03-12T05:06:34.761Z,78.90
2023-03-12T05:09:21.532Z,79.30
2023-03-12T05:12:07.612Z,79.20
2023-03-12T05:14:53.942Z,79.60
2023-03-12T05:17:40.231Z,79.80
2023-03-12T05:20:26.244Z,80.10
2023-03-12T05:23:12.476Z,80.20
2023-03-12T05:25:58.778Z,80.80
2023-03-12T05:28:45.570Z,81.00
2023-03-12T05:31:35.127Z,81.30
2023-03-12T05:34:23.435Z,81.70
2023-03-12T05:37:09.904Z,81.80
2023-03-12T05:39:56.920Z,81.10
2023-03-12T05:42:42.940Z,80.90
2023-03-12T05:45:28.978Z,81.10
2023-03-12T05:48:16.937Z,81.40
2023-03-12T05:51:03.043Z,81.50
2023-03-12T05:53:50.959Z,81.90
2023-03-12T05:56:37.936Z,81.70
2023-03-12T05:59:24.571Z,82.30
2023-03-12T06:02:12.496Z,81.80
2023-03-12T06:04:58.918Z,82.10
2023-03-12T06:07:44.910Z,81.90
2023-03-12T06:10:30.969Z,81.90
2023-03-12T06:13:17.194Z,82.70
2023-03-12T06:16:08.809Z,82.70
2023-03-12T06:19:00.978Z,82.60
2023-03-12T06:21:47.307Z,82.40
2023-03-12T06:24:33.755Z,82.90
2023-03-12T06:27:22.177Z,83.30
2023-03-12T06:30:09.110Z,83.80
2023-03-12T06:32:58.066Z,83.10
2023-03-12T06:35:45.609Z,83.40
2023-03-12T06:38:32.286Z,83.70
2023-03-12T06:41:20.372Z,83.10
2023-03-12T06:44:06.403Z,83.80
2023-03-12T06:46:53.055Z,83.40
2023-03-12T06:49:39.580Z,82.80
2023-03-12T06:52:25.352Z,84.00
2023-03-12T06:55:11.706Z,83.30
2023-03-12T06:57:57.873Z,83.20
2023-03-12T07:00:43.895Z,83.80
2023-03-12T07:03:30.043Z,83.60
2023-03-12T07:06:18.993Z,84.10
2023-03-12T07:09:05.478Z,84.60
2023-03-12T07:11:51.527Z,85.60
2023-03-12T07:14:37.764Z,85.80
2023-03-12T07:17:24.546Z,86.50
2023-03-12T07:20:11.582Z,86.20
2023-03-12T07:22:57.586Z,86.60
2023-03-12T07:25:44.793Z,86.00
2023-03-12T07:28:30.923Z,86.50
2023-03-12T07:31:16.904Z,86.90
2023-03-12T07:34:03.270Z,86.20
2023-03-12T07:36:49.378Z,85.80
2023-03-12T07:39:35.668Z,85.50
2023-03-12T07:42:21.782Z,84.60
2023-03-12T07:45:08.209Z,84.70
2023-03-12T07:47:54.536Z,84.00
2023-03-12T07:50:41.178Z,83.70
2023-03-12T07:53:27.682Z,84.00
2023-03-12T07:56:13.699Z,84.90
2023-03-12T07:59:00.252Z,84.20
2023-03-12T08:01:47.304Z,83.70
2023-03-12T08:04:33.614Z,84.20
2023-03-12T08:07:20.043Z,84.30
2023-03-12T08:10:08.626Z,84.30
2023-03-12T08:12:54.680Z,84.50
2023-03-12T08:15:40.436Z,84.90
2023-03-12T08:18:27.370Z,85.30
2023-03-12T08:21:16.490Z,84.90
2023-03-12T08:24:02.468Z,84.50
2023-03-12T08:26:48.739Z,84.40
2023-03-12T08:29:34.649Z,84.00
2023-03-12T08:32:20.857Z,84.20
2023-03-12T08:35:07.757Z,84.50
2023-03-12T08:37:53.923Z,83.90
2023-03-12T08:40:40.085Z,84.60
2023-03-12T08:43:29.324Z,83.50
2023-03-12T08:46:16.013Z,81.30
2023-03-12T08:49:02.152Z,80.80
2023-03-12T08:51:48.825Z,80.30
2023-03-12T08:54:34.737Z,80.40
2023-03-12T08:57:20.843Z,80.80
2023-03-12T09:00:11.502Z,82.40
2023-03-12T09:02:58.375Z,83.00
2023-03-12T09:05:45.524Z,85.80
2023-03-12T09:08:34.008Z,88.70
2023-03-12T09:11:20.182Z,89.30
2023-03-12T09:17:12.533Z,91.70
2023-03-12T09:19:58.530Z,92.30
2023-03-12T09:22:45.523Z,92.00
2023-03-12T09:25:31.651Z,92.70
2023-03-12T09:28:18.000Z,93.40
2023-03-12T09:31:05.345Z,92.80
2023-03-12T09:33:53.891Z,93.40
2023-03-12T09:36:39.671Z,93.80
2023-03-12T09:39:25.956Z,94.80
2023-03-12T09:42:38.554Z,95.20
2023-03-12T09:45:35.578Z,96.00
2023-03-12T09:48:33.610Z,96.00
2023-03-12T09:51:35.433Z,96.40
2023-03-12T09:54:32.247Z,96.60
2023-03-12T09:57:24.139Z,97.50
2023-03-12T10:00:17.146Z,98.20
2023-03-12T10:03:12.790Z,98.00
2023-03-12T10:06:16.490Z,98.60
2023-03-12T10:09:14.439Z,98.70
2023-03-12T10:12:19.063Z,98.60
2023-03-12T10:15:18.262Z,98.20
2023-03-12T10:18:48.412Z,98.80
2023-03-12T10:21:53.062Z,99.00
2023-03-12T10:24:42.325Z,98.30
2023-03-12T10:27:34.927Z,98.80
2023-03-12T10:30:25.706Z,99.10
2023-03-12T10:33:15.951Z,99.20
2023-03-12T10:36:04.047Z,99.50
2023-03-12T10:38:50.276Z,99.50
2023-03-12T10:41:37.019Z,99.90
2023-03-12T10:44:25.361Z,99.90
2023-03-12T10:47:38.018Z,99.90
2023-03-12T10:50:29.909Z,99.90
2023-03-12T10:53:22.399Z,99.90
2023-03-12T10:56:11.519Z,99.90
2023-03-12T10:58:59.927Z,99.90
2023-03-12T11:01:50.514Z,99.90
2023-03-12T11:04:37.622Z,99.90
2023-03-12T11:07:27.755Z,99.90
2023-03-12T11:10:39.886Z,99.90
2023-03-12T11:13:40.692Z,99.70
2023-03-12T11:16:31.496Z,99.80
2023-03-12T11:19:33.800Z,99.50
2023-03-12T11:22:34.366Z,99.50
2023-03-12T11:25:26.616Z,99.60
2023-03-12T11:28:21.209Z,99.30
2023-03-12T11:31:14.126Z,99.10
2023-03-12T11:34:12.616Z,99.10
2023-03-12T11:37:15.547Z,99.50
2023-03-12T11:40:14.216Z,99.60
2023-03-12T11:43:03.419Z,99.40
2023-03-12T11:46:15.694Z,99.50
2023-03-12T11:49:24.286Z,99.50
2023-03-12T11:52:10.385Z,99.90
2023-03-12T11:55:32.967Z,99.70
2023-03-12T11:58:37.876Z,99.90
2023-03-12T12:01:35.547Z,99.90
2023-03-12T12:04:33.678Z,99.90
2023-03-12T12:07:20.021Z,99.90
2023-03-12T12:10:09.597Z,99.90
2023-03-12T12:13:34.499Z,99.90
2023-03-12T12:16:29.824Z,99.90
2023-03-12T12:19:31.070Z,99.90
2023-03-12T12:22:53.787Z,99.50
2023-03-12T12:25:52.496Z,99.90
2023-03-12T12:29:14.280Z,99.90
2023-03-12T12:32:02.668Z,99.90
2023-03-12T12:35:06.995Z,99.90
2023-03-12T12:38:19.115Z,99.90
2023-03-12T12:41:27.133Z,99.90
2023-03-12T12:44:18.844Z,99.90
2023-03-12T12:47:13.166Z,99.90
2023-03-12T12:50:00.270Z,99.90
2023-03-12T12:52:54.132Z,99.90
2023-03-12T12:56:09.485Z,99.90
2023-03-12T12:59:08.490Z,99.90
2023-03-12T13:01:57.123Z,99.90
2023-03-12T13:04:44.101Z,99.90
2023-03-12T13:07:32.956Z,99.90
2023-03-12T13:10:34.545Z,99.90
2023-03-12T13:13:23.974Z,99.90
2023-03-12T13:16:30.410Z,99.90
2023-03-12T13:19:16.891Z,99.90
2023-03-12T13:22:52.370Z,99.90
2023-03-12T13:25:48.606Z,99.40
2023-03-12T13:28:56.905Z,99.80
2023-03-12T13:31:46.091Z,99.90
2023-03-12T13:34:45.587Z,99.90
2023-03-12T13:38:05.803Z,99.90
2023-03-12T13:41:02.374Z,99.90
2023-03-12T13:43:50.490Z,99.90
2023-03-12T13:46:41.595Z,99.90
2023-03-12T13:49:37.123Z,99.90
2023-03-12T13:52:40.356Z,98.80
2023-03-12T13:55:32.753Z,99.20
2023-03-12T13:58:23.673Z,99.10
2023-03-12T14:01:17.214Z,98.60
2023-03-12T14:04:10.739Z,99.10
2023-03-12T14:07:25.840Z,99.00
2023-03-12T14:10:23.788Z,99.30
2023-03-12T14:13:34.348Z,98.90
2023-03-12T14:16:43.108Z,99.00
2023-03-12T14:19:32.750Z,98.70
2023-03-12T14:22:22.810Z,98.40
2023-03-12T14:25:24.244Z,97.50
2023-03-12T14:28:17.100Z,96.70
2023-03-12T14:31:12.736Z,96.00
2023-03-12T14:34:15.328Z,95.40
2023-03-12T14:37:11.168Z,94.40
2023-03-12T14:40:08.635Z,94.40
2023-03-12T14:42:59.156Z,94.40
2023-03-12T14:45:45.346Z,94.70
2023-03-12T14:48:36.975Z,95.00
2023-03-12T14:51:26.537Z,95.60
2023-03-12T14:54:21.312Z,95.80
2023-03-12T14:57:15.566Z,96.50
2023-03-12T15:00:01.856Z,96.90
2023-03-12T15:02:47.854Z,96.70
2023-03-12T15:05:34.579Z,97.90
2023-03-12T15:08:21.259Z,98.50
2023-03-12T15:11:07.209Z,99.70
2023-03-12T15:13:55.878Z,99.90
2023-03-12T15:16:43.430Z,99.90
2023-03-12T15:19:35.235Z,99.90
2023-03-12T15:22:24.630Z,99.90
2023-03-12T15:25:32.007Z,99.90
2023-03-12T15:28:18.440Z,99.90
2023-03-12T15:31:23.550Z,99.90
2023-03-12T15:34:12.506Z,99.90
2023-03-12T15:37:01.139Z,99.90
2023-03-12T15:39:54.404Z,99.90
2023-03-12T15:42:43.932Z,99.90
2023-03-12T15:45:39.530Z,99.90
2023-03-12T15:48:36.200Z,99.90
2023-03-12T15:51:35.761Z,99.90
2023-03-12T15:54:28.262Z,99.90
2023-03-12T15:57:23.873Z,99.90
2023-03-12T16:00:18.862Z,99.90
2023-03-12T16:03:08.668Z,99.90
2023-03-12T16:05:57.260Z,99.90
2023-03-12T16:08:50.862Z,99.90
2023-03-12T16:11:38.148Z,99.90
2023-03-12T16:14:36.215Z,99.90
2023-03-12T16:17:23.299Z,99.40
2023-03-12T16:20:12.651Z,98.40
2023-03-12T16:22:58.887Z,98.50
2023-03-12T16:25:48.489Z,98.50
2023-03-12T16:28:36.447Z,98.40
2023-03-12T16:31:22.838Z,98.20
2023-03-12T16:34:12.495Z,98.00
2023-03-12T16:36:59.253Z,97.10
2023-03-12T16:39:46.410Z,96.60
2023-03-12T16:42:34.567Z,96.60
2023-03-12T16:45:22.609Z,96.10
2023-03-12T16:48:17.724Z,96.40
2023-03-12T16:51:04.347Z,96.10
2023-03-12T16:54:01.986Z,95.90
2023-03-12T16:56:53.634Z,95.90
2023-03-12T16:59:39.783Z,96.10
2023-03-12T17:02:26.011Z,96.30
2023-03-12T17:05:13.157Z,96.20
2023-03-12T17:07:59.495Z,96.10
2023-03-12T17:10:45.655Z,96.30
2023-03-12T17:13:31.890Z,96.30
2023-03-12T17:16:18.454Z,96.30
2023-03-12T17:19:04.697Z,96.20
2023-03-12T17:21:50.711Z,96.30
2023-03-12T17:24:36.995Z,96.40
2023-03-12T17:27:23.349Z,96.20
2023-03-12T17:30:10.191Z,96.30
2023-03-12T17:33:07.130Z,96.50
2023-03-12T17:36:01.732Z,96.40
2023-03-12T17:38:50.423Z,96.40
2023-03-12T17:41:36.809Z,96.60
2023-03-12T17:44:24.126Z,96.70
2023-03-12T17:47:10.346Z,96.70
2023-03-12T17:49:56.372Z,96.80
2023-03-12T17:52:42.408Z,96.90
2023-03-12T17:55:28.515Z,96.90
2023-03-12T17:58:14.420Z,97.00
2023-03-12T18:01:00.627Z,97.00
2023-03-12T18:03:46.831Z,97.10
2023-03-12T18:06:33.089Z,97.20
2023-03-12T18:09:19.163Z,97.30
2023-03-12T18:12:06.508Z,97.20
2023-03-12T18:14:52.755Z,97.20
2023-03-12T18:17:40.147Z,97.00
2023-03-12T18:20:37.804Z,96.90
2023-03-12T18:23:25.823Z,96.80
2023-03-12T18:26:12.314Z,96.70
2023-03-12T18:28:59.333Z,96.80
2023-03-12T18:31:45.724Z,96.70
2023-03-12T18:34:31.566Z,96.80
2023-03-12T18:37:17.491Z,96.70
2023-03-12T18:40:05.387Z,96.90
2023-03-12T18:42:51.517Z,96.80
2023-03-12T18:45:41.458Z,97.00
2023-03-12T18:48:27.745Z,96.90
2023-03-12T18:51:13.971Z,97.00
2023-03-12T18:54:00.384Z,97.00
2023-03-12T18:56:46.789Z,97.10
2023-03-12T18:59:32.960Z,96.90
2023-03-12T19:02:19.032Z,97.00
2023-03-12T19:05:05.461Z,96.90
2023-03-12T19:07:51.663Z,97.00
2023-03-12T19:10:40.252Z,97.10
2023-03-12T19:13:26.571Z,97.20
2023-03-12T19:16:12.898Z,97.00
2023-03-12T19:18:59.522Z,97.20
2023-03-12T19:21:45.532Z,97.10
2023-03-12T19:24:31.834Z,97.20
2023-03-12T19:27:18.187Z,97.30
2023-03-12T19:30:05.014Z,97.40
2023-03-12T19:32:51.255Z,97.30
2023-03-12T19:35:41.574Z,97.20
2023-03-12T19:38:27.848Z,97.40
2023-03-12T19:41:14.167Z,97.50
2023-03-12T19:44:00.092Z,97.40
2023-03-12T19:46:46.088Z,97.50
2023-03-12T19:49:32.136Z,97.50
2023-03-12T19:52:19.755Z,97.50
2023-03-12T19:55:06.184Z,97.50
2023-03-12T19:57:53.117Z,97.40
2023-03-12T20:00:39.187Z,97.40
2023-03-12T20:03:25.338Z,97.40
2023-03-12T20:06:12.504Z,97.30
2023-03-12T20:08:59.303Z,97.40
2023-03-12T20:11:45.344Z,97.50
2023-03-12T20:14:31.567Z,97.40
2023-03-12T20:17:17.367Z,97.60
2023-03-12T20:20:05.798Z,97.40
2023-03-12T20:22:51.948Z,97.60
2023-03-12T20:25:41.695Z,97.60
2023-03-12T20:28:27.852Z,97.50
2023-03-12T20:31:16.200Z,97.30
2023-03-12T20:34:02.148Z,97.50
2023-03-12T20:36:48.614Z,97.80
2023-03-12T20:39:34.740Z,97.70
2023-03-12T20:42:20.957Z,97.70
2023-03-12T20:45:07.563Z,97.70
2023-03-12T20:47:53.865Z,97.80
2023-03-12T20:50:40.074Z,97.40
2023-03-12T20:53:26.393Z,97.30
2023-03-12T20:56:13.135Z,97.70
2023-03-12T20:58:59.515Z,97.70
2023-03-12T21:01:45.669Z,97.60
2023-03-12T21:04:31.866Z,97.60
2023-03-12T21:07:18.039Z,97.70
2023-03-12T21:10:04.646Z,97.60
2023-03-12T21:12:50.785Z,97.40
2023-03-12T21:15:38.217Z,97.80
2023-03-12T21:18:24.991Z,97.70
2023-03-12T21:21:11.635Z,97.50
2023-03-12T21:23:57.685Z,97.50
2023-03-12T21:26:45.057Z,97.60
2023-03-12T21:29:31.322Z,97.70
2023-03-12T21:32:17.337Z,97.60
2023-03-12T21:35:04.996Z,97.30
2023-03-12T21:37:51.275Z,97.40
2023-03-12T21:40:37.749Z,97.60
2023-03-12T21:43:23.733Z,97.70
2023-03-12T21:46:12.596Z,97.50
2023-03-12T21:48:59.052Z,97.20
2023-03-12T21:51:45.462Z,97.40
2023-03-12T21:54:36.816Z,97.40
2023-03-12T21:57:22.935Z,97.40
2023-03-12T22:00:14.068Z,97.10
2023-03-12T22:02:59.826Z,97.20
2023-03-12T22:05:51.951Z,97.10
2023-03-12T22:08:38.592Z,97.20
2023-03-12T22:11:24.827Z,97.30
2023-03-12T22:14:10.812Z,97.30
2023-03-12T22:16:56.985Z,97.30
2023-03-12T22:19:43.322Z,97.30
2023-03-12T22:22:29.415Z,97.20
2023-03-12T22:25:15.438Z,97.40
2023-03-12T22:28:01.343Z,97.30
2023-03-12T22:30:47.659Z,97.30
2023-03-12T22:33:38.143Z,97.20
2023-03-12T22:36:24.659Z,97.20
2023-03-12T22:39:10.904Z,97.20
2023-03-12T22:41:57.027Z,96.90
2023-03-12T22:44:43.075Z,96.80
2023-03-12T22:47:29.064Z,96.80
2023-03-12T22:50:15.189Z,96.90
2023-03-12T22:53:01.216Z,96.90
2023-03-12T22:55:47.231Z,97.00
2023-03-12T22:58:33.886Z,96.80
2023-03-12T23:01:21.995Z,97.00
2023-03-12T23:04:08.146Z,96.60
2023-03-12T23:07:04.413Z,96.50
2023-03-12T23:09:57.750Z,96.60
2023-03-12T23:12:43.627Z,96.20
2023-03-12T23:15:40.577Z,95.90
2023-03-12T23:18:27.537Z,95.90
2023-03-12T23:21:17.176Z,95.60
2023-03-12T23:24:03.134Z,95.30
2023-03-12T23:26:49.097Z,95.40
2023-03-12T23:29:35.329Z,95.20
2023-03-12T23:32:21.642Z,95.00
2023-03-12T23:35:07.851Z,94.80
2023-03-12T23:37:56.413Z,94.90
2023-03-12T23:40:42.478Z,94.70
2023-03-12T23:43:28.697Z,94.80
2023-03-12T23:46:19.180Z,94.80
2023-03-12T23:49:06.098Z,94.80
2023-03-12T23:51:52.350Z,95.10
2023-03-12T23:54:38.454Z,95.20
2023-03-12T23:57:24.460Z,95.00
